createdAt,value
2022-10-02T00:00:07.463Z,62.00
2022-10-02T00:03:45.361Z,61.60
2022-10-02T00:06:21.779Z,61.32
2022-10-02T00:08:59.099Z,61.21
2022-10-02T00:11:44.555Z,60.55
2022-10-02T00:14:05.413Z,60.45
2022-10-02T00:16:32.805Z,60.33
2022-10-02T00:18:54.146Z,60.68
2022-10-02T00:19:58.377Z,60.67
2022-10-02T00:22:31.920Z,60.83
2022-10-02T00:25:05.077Z,60.97
2022-10-02T00:26:18.743Z,61.04
2022-10-02T00:28:52.712Z,61.07
2022-10-02T00:31:29.866Z,60.88
2022-10-02T00:34:26.738Z,61.04
2022-10-02T00:38:36.666Z,60.27
2022-10-02T00:41:37.586Z,60.44
2022-10-02T00:42:56.465Z,60.57
2022-10-02T00:46:17.813Z,61.00
2022-10-02T00:49:10.403Z,60.72
2022-10-02T00:51:42.118Z,60.95
2022-10-02T00:54:20.440Z,61.21
2022-10-02T00:57:17.525Z,61.04
2022-10-02T00:58:28.437Z,61.25
2022-10-02T01:02:27.448Z,60.66
2022-10-02T01:04:54.544Z,60.71
2022-10-02T01:05:57.982Z,60.78
2022-10-02T01:07:03.968Z,60.66
2022-10-02T01:08:07.801Z,60.65
2022-10-02T01:10:23.955Z,60.53
2022-10-02T01:11:28.940Z,60.75
2022-10-02T01:13:44.203Z,61.08
2022-10-02T01:15:59.452Z,60.98
2022-10-02T01:17:05.320Z,61.02
2022-10-02T01:19:39.582Z,61.28
2022-10-02T01:22:19.627Z,61.64
2022-10-02T01:24:50.632Z,61.69
2022-10-02T01:25:54.229Z,61.63
2022-10-02T01:28:10.053Z,61.79
2022-10-02T01:30:30.300Z,61.82
2022-10-02T01:32:53.195Z,61.48
2022-10-02T01:35:08.483Z,61.49
2022-10-02T01:36:14.307Z,61.41
2022-10-02T01:37:19.904Z,61.20
2022-10-02T01:38:23.969Z,60.82
2022-10-02T01:40:40.764Z,61.25
2022-10-02T01:41:45.024Z,61.37
2022-10-02T01:42:49.731Z,61.53
2022-10-02T01:45:08.751Z,61.68
2022-10-02T01:49:12.472Z,61.66
2022-10-02T01:51:49.190Z,61.52
2022-10-02T01:53:19.193Z,61.39
2022-10-02T01:55:58.480Z,60.96
2022-10-02T01:58:26.038Z,60.78
2022-10-02T02:06:33.870Z,61.06
2022-10-02T02:07:49.803Z,61.02
2022-10-02T02:10:57.264Z,60.86
2022-10-02T02:13:27.835Z,61.09
2022-10-02T02:15:52.550Z,61.34
2022-10-02T02:18:33.179Z,61.19
2022-10-02T02:21:01.619Z,61.24
2022-10-02T02:23:26.663Z,61.24
2022-10-02T02:26:07.197Z,61.06
2022-10-02T02:27:17.195Z,60.74
2022-10-02T02:28:23.019Z,60.62
2022-10-02T02:30:47.283Z,60.95
2022-10-02T02:31:52.804Z,60.83
2022-10-02T02:34:18.099Z,60.86
2022-10-02T02:36:45.749Z,60.45
2022-10-02T02:37:52.415Z,60.32
2022-10-02T02:40:14.468Z,60.16
2022-10-02T02:42:36.418Z,60.18
2022-10-02T02:45:18.324Z,60.06
2022-10-02T02:47:54.932Z,59.89
2022-10-02T02:51:31.477Z,59.77
2022-10-02T02:54:15.137Z,59.62
2022-10-02T02:55:51.338Z,59.83
2022-10-02T02:56:56.980Z,59.81
2022-10-02T02:59:27.891Z,59.90
2022-10-02T03:01:42.587Z,59.63
2022-10-02T03:02:46.100Z,59.79
2022-10-02T03:05:00.377Z,59.66
2022-10-02T03:06:19.309Z,59.71
2022-10-02T03:07:22.931Z,59.73
2022-10-02T03:08:29.461Z,59.75
2022-10-02T03:10:47.558Z,59.61
2022-10-02T03:13:58.337Z,59.48
2022-10-02T03:16:36.021Z,59.26
2022-10-02T03:17:55.523Z,59.44
2022-10-02T03:20:41.833Z,59.76
2022-10-02T03:21:51.498Z,59.53
2022-10-02T03:23:04.217Z,59.56
2022-10-02T03:25:49.058Z,59.80
2022-10-02T03:28:55.620Z,59.61
2022-10-02T03:31:05.231Z,59.58
2022-10-02T03:33:24.529Z,60.25
2022-10-02T03:35:43.057Z,60.37
2022-10-02T03:36:47.459Z,60.36
2022-10-02T03:39:24.071Z,60.00
2022-10-02T03:41:27.637Z,59.69
2022-10-02T03:42:33.759Z,59.73
2022-10-02T03:43:37.953Z,59.75
2022-10-02T03:45:53.907Z,59.79
2022-10-02T03:46:57.149Z,59.67
2022-10-02T03:49:11.805Z,59.59
2022-10-02T03:51:27.021Z,59.53
2022-10-02T03:52:33.300Z,59.56
2022-10-02T03:53:36.577Z,59.56
2022-10-02T03:57:26.102Z,59.36
2022-10-02T03:59:44.657Z,59.29
2022-10-02T04:02:29.396Z,59.32
2022-10-02T04:05:48.080Z,59.06
2022-10-02T04:06:54.957Z,59.03
2022-10-02T04:09:29.293Z,58.93
2022-10-02T04:12:09.467Z,59.61
2022-10-02T04:13:19.464Z,59.76
2022-10-02T04:16:02.864Z,59.76
2022-10-02T04:18:49.352Z,59.72
2022-10-02T04:21:32.003Z,59.58
2022-10-02T04:24:00.181Z,59.59
2022-10-02T04:26:34.420Z,59.58
2022-10-02T04:27:56.753Z,59.55
2022-10-02T04:30:21.459Z,59.58
2022-10-02T04:31:24.834Z,59.65
2022-10-02T04:32:33.733Z,59.48
2022-10-02T04:34:47.865Z,59.02
2022-10-02T04:39:50.567Z,58.94
2022-10-02T04:42:41.607Z,59.04
2022-10-02T04:46:56.291Z,59.22
2022-10-02T04:48:03.271Z,59.20
2022-10-02T04:51:13.484Z,59.04
2022-10-02T04:52:32.542Z,58.87
2022-10-02T04:55:19.661Z,58.87
2022-10-02T04:58:06.702Z,59.10
2022-10-02T05:01:22.811Z,59.00
2022-10-02T05:04:46.557Z,59.00
2022-10-02T05:06:12.357Z,58.89
2022-10-02T05:07:19.394Z,58.84
2022-10-02T05:10:12.706Z,58.55
2022-10-02T05:11:36.319Z,58.56
2022-10-02T05:13:01.803Z,58.55
2022-10-02T05:15:44.100Z,58.40
2022-10-02T05:18:38.533Z,58.43
2022-10-02T05:21:24.073Z,59.14
2022-10-02T05:25:38.197Z,59.61
2022-10-02T05:26:57.557Z,59.26
2022-10-02T05:29:55.990Z,59.24
2022-10-02T05:32:36.139Z,59.71
2022-10-02T05:35:09.838Z,59.24
2022-10-02T05:36:19.763Z,59.42
2022-10-02T05:39:05.697Z,59.39
2022-10-02T05:41:30.674Z,59.04
2022-10-02T05:42:42.850Z,59.01
2022-10-02T05:45:25.649Z,59.00
2022-10-02T05:47:57.390Z,59.15
2022-10-02T05:50:25.128Z,59.59
2022-10-02T05:51:41.470Z,59.80
2022-10-02T05:54:44.651Z,60.23
2022-10-02T05:57:27.078Z,60.18
2022-10-02T06:00:14.586Z,60.10
2022-10-02T06:03:07.281Z,59.55
2022-10-02T06:05:53.101Z,59.03
2022-10-02T06:08:17.351Z,58.97
2022-10-02T06:12:21.348Z,58.32
2022-10-02T06:13:31.277Z,58.31
2022-10-02T06:14:50.565Z,58.21
2022-10-02T06:18:29.029Z,58.08
2022-10-02T06:21:02.546Z,58.29
2022-10-02T06:22:15.092Z,58.42
2022-10-02T06:23:27.586Z,58.52
2022-10-02T06:27:42.711Z,58.83
2022-10-02T06:30:04.766Z,58.40
2022-10-02T06:31:11.884Z,58.63
2022-10-02T06:32:35.529Z,58.94
2022-10-02T06:34:50.276Z,59.43
2022-10-02T06:36:09.596Z,60.05
2022-10-02T06:38:31.269Z,61.79
2022-10-02T06:41:16.134Z,61.93
2022-10-02T06:42:29.244Z,63.03
2022-10-02T06:45:11.910Z,65.14
2022-10-02T06:46:34.277Z,65.27
2022-10-02T06:47:56.244Z,64.98
2022-10-02T06:50:54.643Z,65.23
2022-10-02T06:52:04.706Z,66.10
2022-10-02T06:53:14.732Z,65.94
2022-10-02T06:56:36.431Z,67.71
2022-10-02T06:59:13.187Z,65.56
2022-10-02T07:01:37.593Z,67.02
2022-10-02T07:02:47.550Z,66.38
2022-10-02T07:05:45.720Z,67.75
2022-10-02T07:08:40.990Z,66.49
2022-10-02T07:11:31.250Z,66.99
2022-10-02T07:12:38.274Z,67.12
2022-10-02T07:15:19.683Z,66.70
2022-10-02T07:19:48.330Z,67.26
2022-10-02T07:22:43.879Z,66.43
2022-10-02T07:25:14.990Z,65.96
2022-10-02T07:26:34.708Z,66.52
2022-10-02T07:29:15.691Z,65.58
2022-10-02T07:31:49.305Z,65.82
2022-10-02T07:34:30.897Z,66.66
2022-10-02T07:37:44.287Z,66.28
2022-10-02T07:40:33.286Z,67.04
2022-10-02T07:41:43.434Z,66.80
2022-10-02T07:44:44.717Z,68.01
2022-10-02T07:46:17.780Z,69.27
2022-10-02T07:48:57.563Z,74.96
2022-10-02T07:51:52.857Z,72.83
2022-10-02T07:53:07.658Z,72.24
2022-10-02T07:55:53.310Z,73.93
2022-10-02T07:59:33.643Z,41.23
2022-10-02T08:02:04.042Z,43.82
2022-10-02T08:04:34.781Z,42.29
2022-10-02T08:08:31.854Z,43.90
2022-10-02T08:10:57.163Z,44.06
2022-10-02T08:13:22.029Z,43.73
2022-10-02T08:15:54.573Z,42.04
2022-10-02T08:18:34.220Z,42.92
2022-10-02T08:20:45.473Z,43.34
2022-10-02T08:24:27.825Z,41.69
2022-10-02T08:30:57.652Z,41.45
2022-10-02T08:33:21.425Z,41.84
2022-10-02T08:34:24.813Z,41.45
2022-10-02T08:37:19.001Z,44.08
2022-10-02T08:40:12.389Z,40.35
2022-10-02T08:42:56.041Z,39.84
2022-10-02T08:44:12.276Z,40.88
2022-10-02T08:47:07.977Z,42.47
2022-10-02T08:48:42.660Z,38.71
2022-10-02T08:51:53.393Z,39.65
2022-10-02T08:53:23.496Z,40.53
2022-10-02T08:56:19.197Z,42.08
2022-10-02T08:57:35.568Z,41.76
2022-10-02T09:00:03.865Z,41.82
2022-10-02T09:01:29.129Z,44.04
2022-10-02T09:04:38.484Z,43.93
2022-10-02T09:07:41.794Z,43.37
2022-10-02T09:10:49.487Z,43.58
2022-10-02T09:12:23.574Z,43.39
2022-10-02T09:16:45.806Z,40.58
2022-10-02T09:18:09.620Z,40.60
2022-10-02T09:20:55.085Z,39.89
2022-10-02T09:23:51.762Z,39.30
2022-10-02T09:26:48.850Z,40.10
2022-10-02T09:28:34.990Z,40.01
2022-10-02T09:30:19.106Z,39.14
2022-10-02T09:33:15.967Z,41.14
2022-10-02T09:34:31.096Z,42.06
2022-10-02T09:37:26.837Z,45.16
2022-10-02T09:41:49.564Z,46.30
2022-10-02T09:43:05.803Z,46.25
2022-10-02T09:45:48.188Z,46.51
2022-10-02T09:48:56.985Z,45.59
2022-10-02T09:51:50.169Z,45.37
2022-10-02T09:54:43.695Z,45.92
2022-10-02T09:57:39.221Z,45.27
2022-10-02T10:00:28.547Z,45.60
2022-10-02T10:01:44.684Z,43.19
2022-10-02T10:03:00.573Z,44.31
2022-10-02T10:05:34.861Z,43.06
2022-10-02T10:08:52.105Z,44.62
2022-10-02T10:10:17.253Z,45.18
2022-10-02T10:13:22.312Z,42.36
2022-10-02T10:16:07.438Z,41.80
2022-10-02T10:17:14.681Z,41.83
2022-10-02T10:18:38.794Z,41.97
2022-10-02T10:21:39.882Z,43.26
2022-10-02T10:22:59.181Z,45.54
2022-10-02T10:25:59.739Z,44.59
2022-10-02T10:28:46.007Z,44.88
2022-10-02T10:30:08.031Z,44.14
2022-10-02T10:33:14.597Z,44.18
2022-10-02T10:36:16.092Z,45.17
2022-10-02T10:40:17.322Z,46.65
2022-10-02T10:43:24.007Z,44.21
2022-10-02T10:46:36.315Z,45.57
2022-10-02T10:48:03.643Z,45.50
2022-10-02T10:52:32.798Z,44.66
2022-10-02T10:55:40.572Z,45.99
2022-10-02T10:58:22.484Z,47.33
2022-10-02T11:01:14.806Z,44.85
2022-10-02T11:04:24.065Z,44.38
2022-10-02T11:08:45.102Z,42.46
2022-10-02T11:11:18.970Z,41.96
2022-10-02T11:12:41.455Z,41.17
2022-10-02T11:15:50.892Z,43.04
2022-10-02T11:17:13.730Z,42.53
2022-10-02T11:19:50.698Z,42.64
2022-10-02T11:22:15.520Z,42.15
2022-10-02T11:24:43.204Z,43.15
2022-10-02T11:27:17.940Z,42.10
2022-10-02T11:29:57.005Z,41.51
2022-10-02T11:31:06.646Z,40.97
2022-10-02T11:34:21.682Z,42.65
2022-10-02T11:36:01.304Z,42.03
2022-10-02T11:38:51.108Z,42.04
2022-10-02T11:41:45.231Z,41.72
2022-10-02T11:43:09.456Z,40.94
2022-10-02T11:47:01.369Z,42.07
2022-10-02T11:48:17.453Z,40.90
2022-10-02T11:51:14.606Z,40.62
2022-10-02T11:53:48.268Z,42.45
2022-10-02T11:56:31.561Z,43.02
2022-10-02T11:58:04.648Z,43.24
2022-10-02T12:01:13.927Z,40.21
2022-10-02T12:02:23.464Z,41.71
2022-10-02T12:05:00.074Z,42.69
2022-10-02T12:06:23.765Z,42.54
2022-10-02T12:10:32.938Z,39.72
2022-10-02T12:12:02.639Z,41.10
2022-10-02T12:13:24.511Z,39.14
2022-10-02T12:15:56.534Z,40.39
2022-10-02T12:17:33.791Z,39.74
2022-10-02T12:20:18.933Z,38.60
2022-10-02T12:21:23.928Z,38.94
2022-10-02T12:23:51.842Z,39.98
2022-10-02T12:29:51.257Z,40.86
2022-10-02T12:32:36.060Z,38.67
2022-10-02T12:35:32.286Z,40.15
2022-10-02T12:36:42.266Z,40.06
2022-10-02T12:39:34.593Z,38.57
2022-10-02T12:40:59.802Z,38.97
2022-10-02T12:42:15.877Z,38.89
2022-10-02T12:43:56.807Z,37.92
2022-10-02T12:47:10.533Z,37.96
2022-10-02T12:48:37.554Z,38.38
2022-10-02T12:51:31.864Z,37.55
2022-10-02T12:54:43.194Z,38.04
2022-10-02T13:00:58.941Z,37.60
2022-10-02T13:03:56.080Z,37.78
2022-10-02T13:06:54.387Z,37.54
2022-10-02T13:10:02.205Z,37.26
2022-10-02T13:12:44.452Z,36.09
2022-10-02T13:14:12.594Z,36.60
2022-10-02T13:17:10.228Z,38.96
2022-10-02T13:18:34.510Z,37.83
2022-10-02T13:21:33.176Z,38.98
2022-10-02T13:22:55.396Z,38.73
2022-10-02T13:24:11.343Z,38.25
2022-10-02T13:27:09.285Z,36.61
2022-10-02T13:29:51.809Z,38.44
2022-10-02T13:33:56.902Z,38.11
2022-10-02T13:38:09.219Z,36.12
2022-10-02T13:40:58.242Z,36.47
2022-10-02T13:42:11.079Z,36.71
2022-10-02T13:44:51.413Z,37.23
2022-10-02T13:47:42.309Z,36.06
2022-10-02T13:50:17.490Z,37.60
2022-10-02T13:52:53.105Z,37.57
2022-10-02T13:55:34.072Z,40.06
2022-10-02T13:58:25.518Z,36.97
2022-10-02T14:02:49.706Z,35.43
2022-10-02T14:05:57.054Z,37.51
2022-10-02T14:07:20.579Z,38.48
2022-10-02T14:10:18.242Z,36.80
2022-10-02T14:13:12.783Z,36.45
2022-10-02T14:14:21.802Z,36.10
2022-10-02T14:16:59.399Z,37.86
2022-10-02T14:18:24.410Z,38.36
2022-10-02T14:21:35.409Z,36.91
2022-10-02T14:24:20.582Z,38.38
2022-10-02T14:27:02.399Z,36.18
2022-10-02T14:28:32.351Z,36.40
2022-10-02T14:33:02.629Z,38.73
2022-10-02T14:37:17.014Z,38.58
2022-10-02T14:39:52.471Z,39.54
2022-10-02T14:42:14.104Z,36.94
2022-10-02T14:45:14.611Z,39.85
2022-10-02T14:49:45.099Z,39.86
2022-10-02T14:52:40.307Z,40.24
2022-10-02T14:57:03.268Z,42.42
2022-10-02T14:58:28.257Z,44.87
2022-10-02T15:01:17.619Z,44.87
2022-10-02T15:02:30.629Z,44.37
2022-10-02T15:05:36.483Z,47.45
2022-10-02T15:06:58.446Z,46.97
2022-10-02T15:09:23.751Z,48.74
2022-10-02T15:12:00.379Z,47.44
2022-10-02T15:14:49.037Z,49.10
2022-10-02T15:18:40.323Z,49.16
2022-10-02T15:21:29.826Z,50.69
2022-10-02T15:22:45.654Z,50.71
2022-10-02T15:25:26.595Z,47.58
2022-10-02T15:26:36.718Z,49.11
2022-10-02T15:29:29.382Z,51.29
2022-10-02T15:31:03.550Z,50.32
2022-10-02T15:32:27.596Z,50.22
2022-10-02T15:35:15.947Z,48.51
2022-10-02T15:38:15.581Z,48.70
2022-10-02T15:41:09.327Z,50.68
2022-10-02T15:42:35.180Z,50.11
2022-10-02T15:46:49.083Z,52.20
2022-10-02T15:48:28.086Z,54.06
2022-10-02T15:51:47.034Z,34.87
2022-10-02T15:54:43.929Z,36.63
2022-10-02T15:56:05.851Z,36.39
2022-10-02T15:59:11.114Z,36.66
2022-10-02T16:00:22.888Z,36.90
2022-10-02T16:03:06.837Z,37.38
2022-10-02T16:05:57.305Z,37.14
2022-10-02T16:08:54.092Z,36.19
2022-10-02T16:11:31.036Z,37.99
2022-10-02T16:15:26.639Z,38.75
2022-10-02T16:16:40.249Z,37.98
2022-10-02T16:19:18.019Z,38.57
2022-10-02T16:22:15.601Z,37.96
2022-10-02T16:25:05.956Z,36.15
2022-10-02T16:26:25.599Z,37.52
2022-10-02T16:29:23.632Z,38.00
2022-10-02T16:31:51.659Z,37.49
2022-10-02T16:34:45.118Z,38.31
2022-10-02T16:35:52.260Z,39.08
2022-10-02T16:38:47.416Z,37.43
2022-10-02T16:41:37.220Z,37.79
2022-10-02T16:44:08.700Z,38.90
2022-10-02T16:47:03.885Z,37.16
2022-10-02T16:49:40.338Z,38.38
2022-10-02T16:52:08.438Z,38.70
2022-10-02T16:54:42.521Z,37.84
2022-10-02T16:57:22.612Z,40.01
2022-10-02T16:59:47.729Z,38.00
2022-10-02T17:00:58.679Z,38.63
2022-10-02T17:03:32.601Z,38.41
2022-10-02T17:06:08.683Z,38.09
2022-10-02T17:08:55.073Z,40.21
2022-10-02T17:11:39.701Z,37.93
2022-10-02T17:14:36.822Z,37.87
2022-10-02T17:17:23.503Z,39.76
2022-10-02T17:19:57.668Z,39.83
2022-10-02T17:22:47.676Z,38.04
2022-10-02T17:25:33.581Z,39.50
2022-10-02T17:27:09.555Z,39.58
2022-10-02T17:30:06.694Z,41.06
2022-10-02T17:31:48.879Z,40.99
2022-10-02T17:34:28.633Z,39.01
2022-10-02T17:37:08.068Z,40.68
2022-10-02T17:39:46.347Z,40.54
2022-10-02T17:42:34.378Z,41.32
2022-10-02T17:45:25.739Z,40.39
2022-10-02T17:48:09.178Z,41.26
2022-10-02T17:50:43.036Z,38.87
2022-10-02T17:51:56.330Z,40.12
2022-10-02T17:54:29.479Z,44.19
2022-10-02T17:56:01.311Z,43.92
2022-10-02T17:59:24.085Z,45.06
2022-10-02T18:02:20.827Z,45.42
2022-10-02T18:06:52.905Z,41.01
2022-10-02T18:11:09.575Z,41.07
2022-10-02T18:13:54.969Z,40.25
2022-10-02T18:15:22.355Z,38.99
2022-10-02T18:16:58.517Z,39.34
2022-10-02T18:19:43.223Z,38.77
2022-10-02T18:21:05.668Z,41.36
2022-10-02T18:23:46.556Z,40.36
2022-10-02T18:26:29.451Z,39.61
2022-10-02T18:29:20.029Z,39.66
2022-10-02T18:32:04.356Z,38.66
2022-10-02T18:33:20.948Z,39.68
2022-10-02T18:35:54.908Z,40.54
2022-10-02T18:40:23.355Z,38.47
2022-10-02T18:41:49.996Z,38.26
2022-10-02T18:44:33.068Z,39.71
2022-10-02T18:46:13.965Z,38.98
2022-10-02T18:49:05.096Z,38.55
2022-10-02T18:52:25.231Z,40.08
2022-10-02T18:55:36.238Z,38.74
2022-10-02T18:57:00.216Z,40.60
2022-10-02T18:59:38.847Z,38.97
2022-10-02T19:02:19.174Z,40.01
2022-10-02T19:05:11.798Z,40.03
2022-10-02T19:06:33.528Z,39.58
2022-10-02T19:09:09.283Z,41.93
2022-10-02T19:10:31.683Z,41.43
2022-10-02T19:11:47.441Z,40.36
2022-10-02T19:16:26.047Z,39.65
2022-10-02T19:18:43.477Z,39.66
2022-10-02T19:19:46.921Z,40.23
2022-10-02T19:22:26.650Z,38.98
2022-10-02T19:25:07.150Z,40.48
2022-10-02T19:27:37.948Z,40.21
2022-10-02T19:29:59.172Z,39.48
2022-10-02T19:31:05.946Z,40.82
2022-10-02T19:32:13.085Z,40.69
2022-10-02T19:34:32.139Z,39.48
2022-10-02T19:37:00.937Z,40.77
2022-10-02T19:44:50.311Z,40.12
2022-10-02T19:47:27.203Z,40.01
2022-10-02T19:51:08.669Z,40.32
2022-10-02T19:52:42.511Z,40.37
2022-10-02T19:56:44.430Z,40.19
2022-10-02T19:57:49.352Z,39.70
2022-10-02T20:00:18.929Z,40.65
2022-10-02T20:01:28.319Z,39.42
2022-10-02T20:03:56.197Z,40.35
2022-10-02T20:07:32.745Z,40.69
2022-10-02T20:10:18.435Z,40.23
2022-10-02T20:11:31.468Z,40.15
2022-10-02T20:15:14.924Z,39.66
2022-10-02T20:16:23.273Z,38.17
2022-10-02T20:17:26.821Z,39.24
2022-10-02T20:18:30.561Z,38.39
2022-10-02T20:20:55.754Z,37.72
2022-10-02T20:22:05.479Z,39.26
2022-10-02T20:23:13.165Z,38.84
2022-10-02T20:26:54.999Z,38.86
2022-10-02T20:28:02.102Z,39.20
2022-10-02T20:30:22.908Z,38.91
2022-10-02T20:32:59.542Z,39.70
2022-10-02T20:35:27.963Z,37.84
2022-10-02T20:37:52.790Z,39.12
2022-10-02T20:40:29.684Z,39.10
2022-10-02T20:43:00.445Z,38.50
2022-10-02T20:45:16.610Z,38.53
2022-10-02T20:48:35.797Z,40.20
2022-10-02T20:53:04.731Z,38.74
2022-10-02T20:55:50.338Z,40.34
2022-10-02T21:00:16.397Z,41.52
2022-10-02T21:02:49.042Z,39.29
2022-10-02T21:05:52.780Z,39.86
2022-10-02T21:08:46.943Z,41.24
2022-10-02T21:11:58.810Z,41.00
2022-10-02T21:13:11.723Z,42.75
2022-10-02T21:16:13.964Z,39.67
2022-10-02T21:19:03.693Z,40.76
2022-10-02T21:21:38.114Z,40.49
2022-10-02T21:23:00.574Z,39.79
2022-10-02T21:24:30.397Z,39.66
2022-10-02T21:27:11.119Z,40.31
2022-10-02T21:28:24.355Z,40.01
2022-10-02T21:31:13.178Z,41.05
2022-10-02T21:32:38.832Z,40.03
2022-10-02T21:35:32.278Z,41.42
2022-10-02T21:39:38.212Z,40.03
2022-10-02T21:42:34.549Z,40.81
2022-10-02T21:43:53.159Z,40.29
2022-10-02T21:45:35.458Z,40.46
2022-10-02T21:47:08.633Z,39.86
2022-10-02T21:52:14.540Z,41.08
2022-10-02T21:53:24.633Z,40.38
2022-10-02T21:56:45.582Z,40.67
2022-10-02T22:00:01.159Z,40.95
2022-10-02T22:02:49.397Z,40.88
2022-10-02T22:04:19.231Z,40.97
2022-10-02T22:07:05.451Z,41.17
2022-10-02T22:10:21.691Z,41.28
2022-10-02T22:13:21.569Z,41.31
2022-10-02T22:17:42.968Z,41.62
2022-10-02T22:22:09.712Z,42.91
2022-10-02T22:23:28.127Z,43.60
2022-10-02T22:26:41.811Z,42.49
2022-10-02T22:29:18.707Z,41.87
2022-10-02T22:30:26.149Z,39.66
2022-10-02T22:33:18.298Z,41.31
2022-10-02T22:35:54.352Z,42.83
2022-10-02T22:37:02.058Z,40.98
2022-10-02T22:39:32.353Z,41.98
2022-10-02T22:42:09.383Z,40.36
2022-10-02T22:43:22.380Z,41.26
2022-10-02T22:45:49.648Z,41.83
2022-10-02T22:50:01.035Z,40.22
2022-10-02T22:52:47.462Z,40.59
2022-10-02T22:55:35.399Z,40.99
2022-10-02T22:58:00.506Z,40.30
2022-10-02T23:00:28.597Z,41.09
2022-10-02T23:04:41.020Z,39.52
2022-10-02T23:07:54.557Z,40.81
2022-10-02T23:10:41.046Z,40.88
2022-10-02T23:13:30.093Z,40.68
2022-10-02T23:16:06.669Z,42.03
2022-10-02T23:18:46.025Z,40.35
2022-10-02T23:21:20.011Z,41.35
2022-10-02T23:24:21.269Z,41.30
2022-10-02T23:28:24.546Z,41.83
2022-10-02T23:30:55.351Z,40.91
2022-10-02T23:33:27.151Z,42.83
2022-10-02T23:36:06.645Z,41.70
2022-10-02T23:37:25.184Z,41.92
2022-10-02T23:40:18.267Z,41.19
2022-10-02T23:41:25.661Z,42.43
2022-10-02T23:44:26.906Z,41.56
2022-10-02T23:46:52.166Z,41.96
2022-10-02T23:49:14.839Z,42.03
2022-10-02T23:50:54.051Z,41.81
2022-10-02T23:53:26.371Z,41.81
2022-10-02T23:56:17.970Z,42.27
